Norwood Hollow, North Carolina
Current Conditions -  °F | °C
As of 5:55 AM on Thursday 27 Nov 2014 (Local Time) from KTNB Reporting Station
Light Snow Light Snow  
Wind Chill: 23°   Ceiling: 1500
Heat Index: 32°   Visibility: 4mi
Dew Point: 31°   Wind: 10mph
Humidity: 97%   Direction: 300°WNW
Pressure: 29.92"   Gusts: NA
Location:  36.1797°N, 81.8424°W
Report Text: KTNB 271055Z AUTO 30009KT 4SM -SN BKN015 OVC022 00/00 A2992 RMK AO2 T10011005
Loading
Personal Weather Stations






























Interactive Weather Map New forecast layout! Learn more

10-Day Weather Forecast

Advertisements
Track Severe Weather on mobile